createdAt,value
2022-11-20T00:01:22.375Z,2.40
2022-11-20T00:03:49.095Z,2.36
2022-11-20T00:06:17.421Z,2.36
2022-11-20T00:08:44.278Z,2.44
2022-11-20T00:11:23.018Z,2.34
2022-11-20T00:13:52.024Z,2.47
2022-11-20T00:16:21.596Z,2.36
2022-11-20T00:18:48.553Z,2.54
2022-11-20T00:21:17.477Z,2.51
2022-11-20T00:23:44.162Z,2.39
2022-11-20T00:26:13.453Z,2.32
2022-11-20T00:28:40.060Z,2.24
2022-11-20T00:31:17.137Z,2.30
2022-11-20T00:33:44.723Z,2.32
2022-11-20T00:36:22.397Z,2.48
2022-11-20T00:38:53.398Z,2.32
2022-11-20T00:41:19.851Z,2.35
2022-11-20T00:43:46.283Z,2.20
2022-11-20T00:46:18.041Z,2.25
2022-11-20T00:48:45.306Z,2.38
2022-11-20T00:51:14.037Z,2.31
2022-11-20T00:53:40.748Z,2.50
2022-11-20T00:56:10.222Z,2.46
2022-11-20T00:58:39.478Z,2.24
2022-11-20T01:01:10.053Z,2.24
2022-11-20T01:03:39.270Z,2.23
2022-11-20T01:06:17.342Z,2.36
2022-11-20T01:08:45.121Z,2.29
2022-11-20T01:11:21.357Z,2.35
2022-11-20T01:13:49.814Z,2.40
2022-11-20T01:16:21.966Z,2.31
2022-11-20T01:18:50.891Z,2.15
2022-11-20T01:21:23.678Z,2.22
2022-11-20T01:23:51.512Z,2.34
2022-11-20T01:26:21.295Z,2.20
2022-11-20T01:28:48.651Z,2.26
2022-11-20T01:31:27.176Z,2.31
2022-11-20T01:33:56.344Z,2.17
2022-11-20T01:36:24.545Z,2.08
2022-11-20T01:38:56.057Z,2.12
2022-11-20T01:41:41.057Z,2.14
2022-11-20T01:44:07.621Z,2.17
2022-11-20T01:46:39.166Z,2.06
2022-11-20T01:49:11.958Z,2.38
2022-11-20T01:51:51.350Z,2.36
2022-11-20T01:54:23.414Z,2.18
2022-11-20T01:56:52.178Z,2.20
2022-11-20T01:59:20.000Z,2.34
2022-11-20T02:01:46.869Z,2.38
2022-11-20T02:04:14.176Z,2.04
2022-11-20T02:06:43.563Z,2.14
2022-11-20T02:09:09.918Z,2.24
2022-11-20T02:11:36.228Z,2.19
2022-11-20T02:14:02.504Z,2.11
2022-11-20T02:16:31.138Z,2.12
2022-11-20T02:18:59.476Z,2.03
2022-11-20T02:21:26.292Z,2.18
2022-11-20T02:24:01.893Z,1.96
2022-11-20T02:26:29.746Z,2.07
2022-11-20T02:28:56.061Z,2.11
2022-11-20T02:31:22.413Z,2.21
2022-11-20T02:33:48.679Z,2.21
2022-11-20T02:36:17.017Z,2.15
2022-11-20T02:38:44.036Z,2.18
2022-11-20T02:41:10.310Z,2.28
2022-11-20T02:43:36.582Z,2.28
2022-11-20T02:46:02.931Z,2.36
2022-11-20T02:48:32.690Z,2.36
2022-11-20T02:51:00.197Z,2.22
2022-11-20T02:53:26.548Z,2.19
2022-11-20T02:55:52.888Z,2.29
2022-11-20T02:58:19.515Z,2.27
2022-11-20T03:00:45.805Z,2.40
2022-11-20T03:03:12.153Z,2.35
2022-11-20T03:05:38.443Z,2.11
2022-11-20T03:08:04.827Z,2.11
2022-11-20T03:10:31.097Z,2.17
2022-11-20T03:12:57.438Z,2.22
2022-11-20T03:15:24.716Z,2.43
2022-11-20T03:17:53.789Z,2.20
2022-11-20T03:20:20.820Z,2.10
2022-11-20T03:22:47.103Z,2.10
2022-11-20T03:25:13.360Z,2.04
2022-11-20T03:27:39.621Z,2.13
2022-11-20T03:30:06.439Z,1.97
2022-11-20T03:32:32.760Z,2.03
2022-11-20T03:34:59.030Z,1.95
2022-11-20T03:37:25.337Z,2.16
2022-11-20T03:39:51.628Z,2.20
2022-11-20T03:42:36.694Z,2.29
2022-11-20T03:45:03.041Z,2.18
2022-11-20T03:47:29.467Z,2.06
2022-11-20T03:49:55.836Z,2.13
2022-11-20T03:52:22.142Z,2.07
2022-11-20T03:54:48.426Z,2.17
2022-11-20T03:57:14.735Z,2.13
2022-11-20T03:59:41.015Z,2.13
2022-11-20T04:02:07.369Z,1.94
2022-11-20T04:04:33.740Z,2.08
2022-11-20T04:07:00.165Z,2.29
2022-11-20T04:09:26.468Z,2.03
2022-11-20T04:11:52.775Z,1.84
2022-11-20T04:14:19.219Z,1.80
2022-11-20T04:16:45.529Z,1.90
2022-11-20T04:19:14.262Z,2.08
2022-11-20T04:21:40.646Z,2.08
2022-11-20T04:24:07.149Z,1.98
2022-11-20T04:26:34.152Z,2.03
2022-11-20T04:29:02.606Z,1.95
2022-11-20T04:31:30.097Z,1.72
2022-11-20T04:33:56.895Z,1.76
2022-11-20T04:36:24.273Z,1.72
2022-11-20T04:38:57.175Z,1.75
2022-11-20T04:41:24.889Z,1.82
2022-11-20T04:43:52.772Z,1.70
2022-11-20T04:46:19.738Z,1.74
2022-11-20T04:48:46.343Z,1.69
2022-11-20T04:51:13.331Z,1.70
2022-11-20T04:53:39.773Z,1.70
2022-11-20T04:56:07.747Z,1.61
2022-11-20T04:58:34.346Z,1.58
2022-11-20T05:01:04.239Z,1.74
2022-11-20T05:03:31.046Z,1.69
2022-11-20T05:05:57.368Z,1.64
2022-11-20T05:08:23.654Z,1.45
2022-11-20T05:10:49.974Z,1.51
2022-11-20T05:13:16.271Z,1.59
2022-11-20T05:15:42.740Z,1.57
2022-11-20T05:18:09.069Z,1.60
2022-11-20T05:20:37.083Z,1.37
2022-11-20T05:23:03.362Z,1.37
2022-11-20T05:25:29.660Z,1.49
2022-11-20T05:27:55.940Z,1.45
2022-11-20T05:30:22.222Z,1.37
2022-11-20T05:32:48.525Z,1.55
2022-11-20T05:35:14.872Z,1.55
2022-11-20T05:37:41.144Z,1.72
2022-11-20T05:40:07.867Z,1.53
2022-11-20T05:42:34.248Z,1.50
2022-11-20T05:45:04.865Z,1.54
2022-11-20T05:47:34.924Z,1.71
2022-11-20T05:50:01.513Z,1.56
2022-11-20T05:52:30.701Z,1.58
2022-11-20T05:54:57.222Z,1.47
2022-11-20T05:57:23.490Z,1.50
2022-11-20T05:59:49.770Z,1.54
2022-11-20T06:02:16.250Z,1.55
2022-11-20T06:04:42.563Z,1.38
2022-11-20T06:07:08.974Z,1.63
2022-11-20T06:09:35.323Z,1.48
2022-11-20T06:12:01.675Z,1.45
2022-11-20T06:14:28.037Z,1.48
2022-11-20T06:16:54.523Z,1.58
2022-11-20T06:19:21.062Z,1.51
2022-11-20T06:21:48.694Z,1.33
2022-11-20T06:24:15.009Z,1.54
2022-11-20T06:26:41.280Z,1.26
2022-11-20T06:29:07.579Z,1.29
2022-11-20T06:31:35.852Z,1.23
2022-11-20T06:34:02.287Z,1.27
2022-11-20T06:36:28.567Z,1.24
2022-11-20T06:38:55.089Z,1.25
2022-11-20T06:41:22.113Z,1.18
2022-11-20T06:43:48.628Z,1.29
2022-11-20T06:46:15.981Z,1.26
2022-11-20T06:48:42.315Z,1.22
2022-11-20T06:51:09.051Z,1.49
2022-11-20T06:53:35.814Z,1.14
2022-11-20T06:56:02.391Z,1.28
2022-11-20T06:58:29.777Z,1.35
2022-11-20T07:01:00.022Z,1.12
2022-11-20T07:03:26.503Z,1.33
2022-11-20T07:05:54.889Z,1.41
2022-11-20T07:08:22.361Z,1.46
2022-11-20T07:10:48.641Z,1.55
2022-11-20T07:13:14.930Z,1.43
2022-11-20T07:15:41.243Z,1.64
2022-11-20T07:18:07.504Z,1.53
2022-11-20T07:20:33.899Z,1.44
2022-11-20T07:23:00.244Z,1.48
2022-11-20T07:25:27.270Z,1.42
2022-11-20T07:27:53.777Z,1.54
2022-11-20T07:30:20.159Z,1.47
2022-11-20T07:32:53.218Z,1.58
2022-11-20T07:35:20.126Z,1.57
2022-11-20T07:37:46.716Z,1.60
2022-11-20T07:40:13.351Z,1.68
2022-11-20T07:42:39.744Z,1.73
2022-11-20T07:45:06.415Z,1.59
2022-11-20T07:47:36.476Z,1.50
2022-11-20T07:50:02.894Z,1.48
2022-11-20T07:52:29.835Z,1.56
2022-11-20T07:54:56.123Z,1.54
2022-11-20T07:57:27.095Z,1.53
2022-11-20T07:59:54.659Z,1.78
2022-11-20T08:02:20.932Z,1.71
2022-11-20T08:04:47.202Z,1.64
2022-11-20T08:07:13.662Z,1.76
2022-11-20T08:09:40.000Z,1.59
2022-11-20T08:12:25.111Z,1.67
2022-11-20T08:14:51.385Z,1.70
2022-11-20T08:17:17.656Z,1.74
2022-11-20T08:19:43.987Z,1.90
2022-11-20T08:22:10.293Z,1.77
2022-11-20T08:24:36.597Z,1.71
2022-11-20T08:27:02.920Z,1.60
2022-11-20T08:29:29.233Z,1.63
2022-11-20T08:31:55.562Z,1.60
2022-11-20T08:34:21.884Z,1.74
2022-11-20T08:36:48.168Z,2.00
2022-11-20T08:39:14.844Z,1.76
2022-11-20T08:41:41.178Z,1.83
2022-11-20T08:44:08.367Z,1.88
2022-11-20T08:46:37.880Z,1.66
2022-11-20T08:49:07.884Z,1.62
2022-11-20T08:51:34.456Z,1.56
2022-11-20T08:54:00.909Z,1.73
2022-11-20T08:56:27.593Z,1.55
2022-11-20T09:01:40.533Z,1.52
2022-11-20T09:04:06.857Z,1.64
2022-11-20T09:06:33.198Z,1.76
2022-11-20T09:09:03.449Z,1.66
2022-11-20T09:11:32.806Z,1.59
2022-11-20T09:13:59.110Z,1.51
2022-11-20T09:16:25.471Z,1.63
2022-11-20T09:19:02.199Z,1.61
2022-11-20T09:21:38.417Z,1.56
2022-11-20T09:24:05.825Z,1.52
2022-11-20T09:26:32.121Z,1.48
2022-11-20T09:28:58.506Z,1.58
2022-11-20T09:31:26.807Z,1.63
2022-11-20T09:33:53.165Z,1.73
2022-11-20T09:36:19.649Z,1.66
2022-11-20T09:38:46.640Z,1.74
2022-11-20T09:41:18.956Z,1.87
2022-11-20T09:43:59.193Z,1.77
2022-11-20T09:46:34.579Z,1.68
2022-11-20T09:49:04.029Z,1.65
2022-11-20T09:51:48.934Z,1.97
2022-11-20T09:54:19.624Z,1.79
2022-11-20T09:56:49.308Z,1.73
2022-11-20T09:59:24.860Z,1.63
2022-11-20T10:01:51.425Z,1.76
2022-11-20T10:04:18.959Z,1.83
2022-11-20T10:06:59.629Z,1.71
2022-11-20T10:09:37.864Z,1.91
2022-11-20T10:12:13.150Z,1.81
2022-11-20T10:14:58.298Z,1.76
2022-11-20T10:17:40.032Z,1.87
2022-11-20T10:20:28.633Z,1.75
2022-11-20T10:22:54.999Z,1.89
2022-11-20T10:25:25.224Z,1.77
2022-11-20T10:28:19.975Z,1.85
2022-11-20T10:30:47.352Z,1.93
2022-11-20T10:33:20.584Z,1.71
2022-11-20T10:35:51.623Z,1.83
2022-11-20T10:38:21.724Z,1.71
2022-11-20T10:40:54.152Z,1.64
2022-11-20T10:43:23.852Z,1.74
2022-11-20T10:46:09.761Z,1.75
2022-11-20T10:48:37.512Z,1.92
2022-11-20T10:51:04.065Z,1.92
2022-11-20T10:53:39.257Z,1.90
2022-11-20T10:56:15.814Z,1.94
2022-11-20T10:58:48.015Z,1.85
2022-11-20T11:01:15.782Z,1.80
2022-11-20T11:03:44.246Z,1.79
2022-11-20T11:06:27.786Z,1.90
2022-11-20T11:08:57.558Z,1.85
2022-11-20T11:11:25.115Z,1.85
2022-11-20T11:13:51.861Z,2.09
2022-11-20T11:16:25.342Z,1.81
2022-11-20T11:18:52.263Z,1.97
2022-11-20T11:21:25.345Z,2.17
2022-11-20T11:24:13.484Z,1.99
2022-11-20T11:27:16.877Z,2.00
2022-11-20T11:29:44.151Z,2.13
2022-11-20T11:32:15.144Z,2.10
2022-11-20T11:34:41.756Z,1.97
2022-11-20T11:37:18.504Z,2.11
2022-11-20T11:39:45.433Z,1.97
2022-11-20T11:42:14.113Z,2.14
2022-11-20T11:45:03.545Z,2.23
2022-11-20T11:47:44.981Z,2.29
2022-11-20T11:50:11.398Z,2.11
2022-11-20T11:52:43.896Z,2.22
2022-11-20T11:55:13.800Z,2.19
2022-11-20T11:58:06.474Z,2.23
2022-11-20T12:00:33.757Z,2.38
2022-11-20T12:03:13.457Z,2.31
2022-11-20T12:05:44.034Z,2.32
2022-11-20T12:08:16.079Z,2.31
2022-11-20T12:11:25.431Z,2.19
2022-11-20T12:14:10.545Z,2.36
2022-11-20T12:16:38.652Z,2.30
2022-11-20T12:19:09.293Z,2.41
2022-11-20T12:21:42.698Z,2.44
2022-11-20T12:24:12.405Z,2.10
2022-11-20T12:26:49.111Z,2.30
2022-11-20T12:29:41.938Z,2.33
2022-11-20T12:32:14.222Z,2.30
2022-11-20T12:35:13.261Z,2.29
2022-11-20T12:37:48.576Z,2.38
2022-11-20T12:40:29.626Z,2.45
2022-11-20T12:43:17.584Z,2.27
2022-11-20T12:45:54.784Z,2.42
2022-11-20T12:48:34.654Z,2.63
2022-11-20T12:51:16.785Z,2.51
2022-11-20T12:54:06.408Z,2.40
2022-11-20T12:56:48.088Z,2.68
2022-11-20T12:59:26.646Z,2.52
2022-11-20T13:01:56.034Z,2.73
2022-11-20T13:04:22.351Z,2.74
2022-11-20T13:06:49.009Z,2.75
2022-11-20T13:09:18.090Z,2.79
2022-11-20T13:11:50.502Z,2.64
2022-11-20T13:14:35.579Z,2.61
2022-11-20T13:17:06.746Z,2.58
2022-11-20T13:19:33.395Z,2.41
2022-11-20T13:21:59.707Z,2.39
2022-11-20T13:24:27.787Z,2.41
2022-11-20T13:27:09.082Z,2.27
2022-11-20T13:29:36.604Z,2.33
2022-11-20T13:32:08.339Z,2.18
2022-11-20T13:34:34.996Z,2.08
2022-11-20T13:37:01.889Z,2.16
2022-11-20T13:39:32.691Z,2.21
2022-11-20T13:42:00.680Z,2.45
2022-11-20T13:44:35.112Z,2.31
2022-11-20T13:47:01.508Z,2.32
2022-11-20T13:49:27.786Z,2.20
2022-11-20T13:52:17.227Z,2.36
2022-11-20T13:54:44.695Z,2.19
2022-11-20T13:57:29.619Z,2.32
2022-11-20T14:00:28.464Z,2.24
2022-11-20T14:03:07.083Z,2.16
2022-11-20T14:05:38.694Z,2.27
2022-11-20T14:08:07.489Z,2.09
2022-11-20T14:10:33.829Z,2.32
2022-11-20T14:13:10.441Z,2.28
2022-11-20T14:15:41.844Z,2.23
2022-11-20T14:18:16.061Z,2.13
2022-11-20T14:20:42.841Z,2.16
2022-11-20T14:23:10.868Z,2.22
2022-11-20T14:25:37.394Z,2.21
2022-11-20T14:28:05.175Z,2.27
2022-11-20T14:30:37.566Z,2.62
2022-11-20T14:33:04.658Z,2.44
2022-11-20T14:35:32.477Z,2.52
2022-11-20T14:37:59.046Z,2.56
2022-11-20T14:40:27.290Z,2.52
2022-11-20T14:42:54.108Z,2.47
2022-11-20T14:45:21.627Z,2.43
2022-11-20T14:47:49.268Z,2.44
2022-11-20T14:50:25.099Z,2.30
2022-11-20T14:52:52.786Z,2.46
2022-11-20T14:55:33.528Z,2.40
2022-11-20T14:58:01.939Z,2.33
2022-11-20T15:00:28.725Z,2.39
2022-11-20T15:02:55.185Z,2.32
2022-11-20T15:05:26.492Z,2.19
2022-11-20T15:08:06.919Z,2.36
2022-11-20T15:10:33.435Z,2.52
2022-11-20T15:13:07.222Z,2.39
2022-11-20T15:15:44.835Z,2.50
2022-11-20T15:18:15.290Z,2.26
2022-11-20T15:20:42.154Z,2.41
2022-11-20T15:23:16.246Z,2.41
2022-11-20T15:25:43.185Z,2.36
2022-11-20T15:28:21.066Z,2.29
2022-11-20T15:30:48.295Z,2.32
2022-11-20T15:33:15.419Z,2.26
2022-11-20T15:35:42.248Z,2.36
2022-11-20T15:38:08.582Z,2.34
2022-11-20T15:40:35.032Z,2.31
2022-11-20T15:43:08.199Z,2.19
2022-11-20T15:45:42.616Z,2.13
2022-11-20T15:48:20.307Z,2.39
2022-11-20T15:51:24.997Z,2.24
2022-11-20T15:53:51.347Z,2.18
2022-11-20T15:56:17.693Z,2.20
2022-11-20T15:58:44.071Z,2.04
2022-11-20T16:01:14.511Z,2.00
2022-11-20T16:03:41.003Z,2.06
2022-11-20T16:06:07.493Z,2.02
2022-11-20T16:08:34.197Z,2.01
2022-11-20T16:11:00.589Z,2.08
2022-11-20T16:13:45.817Z,2.18
2022-11-20T16:16:23.708Z,2.15
2022-11-20T16:18:50.415Z,2.05
2022-11-20T16:21:17.015Z,1.94
2022-11-20T16:23:43.666Z,1.83
2022-11-20T16:26:13.715Z,1.95
2022-11-20T16:28:40.623Z,1.95
2022-11-20T16:31:10.905Z,1.92
2022-11-20T16:33:37.319Z,2.15
2022-11-20T16:36:10.977Z,2.20
2022-11-20T16:38:37.308Z,2.18
2022-11-20T16:41:04.529Z,2.27
2022-11-20T16:43:31.002Z,2.35
2022-11-20T16:45:57.735Z,2.23
2022-11-20T16:48:24.284Z,2.32
2022-11-20T16:50:51.761Z,2.38
2022-11-20T16:53:19.710Z,2.37
2022-11-20T16:55:46.449Z,2.26
2022-11-20T16:58:12.964Z,2.33
2022-11-20T17:00:40.680Z,2.20
2022-11-20T17:03:07.043Z,2.27
2022-11-20T17:05:34.304Z,2.37
2022-11-20T17:08:00.687Z,2.28
2022-11-20T17:10:27.110Z,2.29
2022-11-20T17:12:53.403Z,2.27
2022-11-20T17:15:20.012Z,2.25
2022-11-20T17:17:46.370Z,2.17
2022-11-20T17:20:12.849Z,2.16
2022-11-20T17:22:40.335Z,2.14
2022-11-20T17:25:06.806Z,2.27
2022-11-20T17:27:33.635Z,2.15
2022-11-20T17:30:00.171Z,2.04
2022-11-20T17:32:26.672Z,1.89
2022-11-20T17:34:53.069Z,2.06
2022-11-20T17:37:19.873Z,2.01
2022-11-20T17:39:46.765Z,1.96
2022-11-20T17:42:29.783Z,1.91
2022-11-20T17:44:58.596Z,2.07
2022-11-20T17:47:25.032Z,2.04
2022-11-20T17:49:51.727Z,2.06
2022-11-20T17:52:18.029Z,2.04
2022-11-20T17:54:44.350Z,1.97
2022-11-20T17:57:29.185Z,1.98
2022-11-20T17:59:55.613Z,2.09
2022-11-20T18:02:22.121Z,2.02
2022-11-20T18:04:48.519Z,1.95
2022-11-20T18:07:14.984Z,2.05
2022-11-20T18:09:41.339Z,1.99
2022-11-20T18:12:07.711Z,1.90
2022-11-20T18:14:36.212Z,2.14
2022-11-20T18:17:06.886Z,1.86
2022-11-20T18:19:41.183Z,2.00
2022-11-20T18:22:11.724Z,1.98
2022-11-20T18:24:39.500Z,2.05
2022-11-20T18:27:07.393Z,1.99
2022-11-20T18:29:34.159Z,2.31
2022-11-20T18:32:00.994Z,2.16
2022-11-20T18:34:27.584Z,2.10
2022-11-20T18:36:53.996Z,2.01
2022-11-20T18:39:20.407Z,2.04
2022-11-20T18:42:05.318Z,2.07
2022-11-20T18:44:50.603Z,2.12
2022-11-20T18:47:21.574Z,1.92
2022-11-20T18:49:52.724Z,1.76
2022-11-20T18:52:20.417Z,2.14
2022-11-20T18:54:47.264Z,1.92
2022-11-20T18:57:15.688Z,1.93
2022-11-20T18:59:45.104Z,2.12
2022-11-20T19:02:15.953Z,1.99
2022-11-20T19:04:42.429Z,1.96
2022-11-20T19:07:11.912Z,1.81
2022-11-20T19:09:39.144Z,2.06
2022-11-20T19:12:06.077Z,1.88
2022-11-20T19:14:32.673Z,1.82
2022-11-20T19:16:59.089Z,1.80
2022-11-20T19:19:25.943Z,1.77
2022-11-20T19:21:53.127Z,1.79
2022-11-20T19:24:19.721Z,1.70
2022-11-20T19:26:46.068Z,1.83
2022-11-20T19:29:14.361Z,1.94
2022-11-20T19:31:41.055Z,2.03
2022-11-20T19:34:08.630Z,1.84
2022-11-20T19:36:38.106Z,1.87
2022-11-20T19:39:09.317Z,1.79
2022-11-20T19:41:37.297Z,1.92
2022-11-20T19:44:04.889Z,1.88
2022-11-20T19:46:32.255Z,1.74
2022-11-20T19:48:58.733Z,1.81
2022-11-20T19:51:27.359Z,1.75
2022-11-20T19:53:54.968Z,1.70
2022-11-20T19:56:21.597Z,1.78
2022-11-20T19:58:47.946Z,1.82
2022-11-20T20:01:18.543Z,1.72
2022-11-20T20:03:45.980Z,1.71
2022-11-20T20:06:14.338Z,1.66
2022-11-20T20:08:41.185Z,1.50
2022-11-20T20:11:14.434Z,1.69
2022-11-20T20:13:40.895Z,2.01
2022-11-20T20:16:10.050Z,1.82
2022-11-20T20:18:36.631Z,1.72
2022-11-20T20:21:10.232Z,1.79
2022-11-20T20:23:36.883Z,1.48
2022-11-20T20:26:04.381Z,1.63
2022-11-20T20:28:31.155Z,1.69
2022-11-20T20:30:58.232Z,1.50
2022-11-20T20:33:24.528Z,1.47
2022-11-20T20:35:50.873Z,1.30
2022-11-20T20:38:17.333Z,1.31
2022-11-20T20:40:48.202Z,1.30
2022-11-20T20:43:14.684Z,1.29
2022-11-20T20:45:48.137Z,1.41
2022-11-20T20:48:18.651Z,1.40
2022-11-20T20:50:55.174Z,1.36
2022-11-20T20:53:21.731Z,1.12
2022-11-20T20:55:58.567Z,1.24
2022-11-20T20:58:25.609Z,1.17
2022-11-20T21:00:52.283Z,1.40
2022-11-20T21:03:18.927Z,1.49
2022-11-20T21:05:45.662Z,1.36
2022-11-20T21:08:21.285Z,1.46
2022-11-20T21:10:48.153Z,1.28
2022-11-20T21:13:14.818Z,1.28
2022-11-20T21:15:41.459Z,1.46
2022-11-20T21:18:07.800Z,1.32
2022-11-20T21:20:52.776Z,1.50
2022-11-20T21:23:19.178Z,1.56
2022-11-20T21:25:45.519Z,1.38
2022-11-20T21:28:16.838Z,1.16
2022-11-20T21:30:44.503Z,1.15
2022-11-20T21:33:10.831Z,0.92
2022-11-20T21:35:37.948Z,1.11
2022-11-20T21:38:04.775Z,1.19
2022-11-20T21:40:31.065Z,1.35
2022-11-20T21:42:57.422Z,1.05
2022-11-20T21:45:23.859Z,1.08
2022-11-20T21:47:51.074Z,1.17
2022-11-20T21:50:20.173Z,1.29
2022-11-20T21:52:46.600Z,1.31
2022-11-20T21:55:12.904Z,1.15
2022-11-20T21:57:39.206Z,1.37
2022-11-20T22:00:06.447Z,1.21
2022-11-20T22:02:32.741Z,1.26
2022-11-20T22:04:59.027Z,0.98
2022-11-20T22:07:25.471Z,1.14
2022-11-20T22:09:51.793Z,1.14
2022-11-20T22:12:18.065Z,1.07
2022-11-20T22:14:45.808Z,0.94
2022-11-20T22:17:13.595Z,1.11
2022-11-20T22:19:39.896Z,1.19
2022-11-20T22:22:06.232Z,1.30
2022-11-20T22:24:32.528Z,1.07
2022-11-20T22:26:58.856Z,1.31
2022-11-20T22:29:25.199Z,1.19
2022-11-20T22:31:52.236Z,1.02
2022-11-20T22:34:18.631Z,1.00
2022-11-20T22:36:45.536Z,0.96
2022-11-20T22:39:11.844Z,0.98
2022-11-20T22:41:38.188Z,0.92
2022-11-20T22:44:05.644Z,0.90
2022-11-20T22:46:33.156Z,0.91
2022-11-20T22:49:00.611Z,0.92
2022-11-20T22:51:31.269Z,1.13
2022-11-20T22:53:57.618Z,1.17
2022-11-20T22:56:24.031Z,1.05
2022-11-20T22:58:51.930Z,1.09
2022-11-20T23:01:19.373Z,1.05
2022-11-20T23:03:49.744Z,1.17
2022-11-20T23:06:17.040Z,1.13
2022-11-20T23:08:43.391Z,1.09
2022-11-20T23:11:11.222Z,1.16
2022-11-20T23:13:37.682Z,1.08
2022-11-20T23:16:05.201Z,1.24
2022-11-20T23:18:31.584Z,1.04
2022-11-20T23:21:03.393Z,1.15
2022-11-20T23:23:29.710Z,1.29
2022-11-20T23:25:59.427Z,1.19
2022-11-20T23:28:26.162Z,1.25
2022-11-20T23:30:52.413Z,1.22
2022-11-20T23:33:18.681Z,1.40
2022-11-20T23:35:48.139Z,1.19
2022-11-20T23:38:14.499Z,1.33
2022-11-20T23:40:41.504Z,1.11
2022-11-20T23:43:17.094Z,1.03
2022-11-20T23:45:44.279Z,1.13
2022-11-20T23:48:10.872Z,1.37
2022-11-20T23:50:37.227Z,1.23
2022-11-20T23:53:03.701Z,1.03
2022-11-20T23:55:30.263Z,1.21
2022-11-20T23:57:56.857Z,1.39
